KOXD/OXD METAR and TAF weather

Enter ICAO airport designator
Station Type Date Time Source
KOXD METAR 2019/04/23 00:16 UTC NOAA

KOXD 230016Z AUTO 15006KT 10SM CLR 20/09 A3007 RMK AO2 T01960093


Station Type Date Time Source
KOXD Decoded METAR 2019/04/23 00:16 UTC NOAA

Station name not available
Apr 22, 2019 - 08:16 PM EDT / 2019.04.23 0016 UTC
Wind: from the SSE (150 degrees) at 7 MPH (6 KT):0
Visibility: 10 mile(s):0
Sky conditions: clear
Temperature: 67.3 F (19.6 C)
Dew Point: 48.7 F (9.3 C)
Relative Humidity: 51%
Pressure (altimeter): 30.07 in. Hg (1018 hPa)
ob: KOXD 230016Z AUTO 15006KT 10SM CLR 20/09 A3007 RMK AO2 T01960093
cycle: 0

Station Type Date Time Source
KOXD TAF UTC NOAA

Error!

Example: see airport list